Time;durP1;ratioP1;P1;durP2;ratioP2;P2;SDS_P1;SDS_P2;PMS_P1;PMS_P2;Temp;Humidity;BMP_temperature;BMP_pressure;BME280_temperature;BME280_humidity;BME280_pressure;Samples;Min_cycle;Max_cycle;Signal;HPM_P1;HPM_P2
2022/07/21 00:01:31;;;;;;;;;;;;;;;;;;5059325;28;20376;-81
2022/07/21 00:03:57;;;;;;;;;;;;;;;;;;5063028;28;19909;-82
2022/07/21 00:06:23;;;;;;;;;;;20.90;99.90;;;;;;5057100;28;20040;-83
2022/07/21 00:08:48;;;;;;;;;;;20.80;99.90;;;;;;5068755;28;19909;-81
2022/07/21 00:11:14;;;;;;;;;;;;;;;;;;5075196;28;19916;-81
2022/07/21 00:13:40;;;;;;;;;;;;;;;;;;5074303;28;19916;-80
2022/07/21 00:16:06;;;;;;;;;;;;;;;;;;5070721;28;19917;-81
2022/07/21 00:18:32;;;;;;;;;;;;;;;;;;5071823;28;19927;-81
2022/07/21 00:20:58;;;;;;;;;;;;;;;;;;5063772;28;19944;-82
2022/07/21 00:23:23;;;;;;;;;;;;;;;;;;5054343;28;20291;-81
2022/07/21 00:25:49;;;;;;;;;;;;;;;;;;5057014;28;19908;-80
2022/07/21 00:28:15;;;;;;;;;;;;;;;;;;5057211;28;20588;-81
2022/07/21 00:30:41;;;;;;;;;;;20.70;99.90;;;;;;5052699;28;19916;-82
2022/07/21 00:33:07;;;;;;;;;;;;;;;;;;5057074;28;20304;-83
2022/07/21 00:35:32;;;;;;;;;;;20.60;99.90;;;;;;5057566;28;20293;-82
2022/07/21 00:37:58;;;;;;;;;;;;;;;;;;5057145;28;19912;-82
2022/07/21 00:40:24;;;;;;;;;;;;;;;;;;5060083;28;19962;-81
2022/07/21 00:42:50;;;;;;;;;;;;;;;;;;5056469;28;20022;-81
2022/07/21 00:45:16;;;;;;;;;;;;;;;;;;5053147;28;20494;-81
2022/07/21 00:47:41;;;;;;;;;;;;;;;;;;5054686;28;19909;-82
2022/07/21 00:50:07;;;;;;;;;;;;;;;;;;5054397;28;21995;-82
2022/07/21 00:52:33;;;;;;;;;;;20.60;99.90;;;;;;5062085;28;20027;-80
2022/07/21 00:54:58;;;;;;;;;;;20.80;99.90;;;;;;5048628;28;19959;-81
2022/07/21 00:57:24;;;;;;;;;;;19.90;99.90;;;;;;5059408;28;19961;-81
2022/07/21 00:59:50;;;;;;;;;;;;;;;;;;5054400;28;19962;-82
2022/07/21 01:02:15;;;;;;;;;;;20.00;99.90;;;;;;5053261;28;19912;-80
2022/07/21 01:04:41;;;;;;;;;;;;;;;;;;5055803;28;19916;-81
2022/07/21 01:07:07;;;;;;;;;;;;;;;;;;5058055;28;19909;-82
2022/07/21 01:09:33;;;;;;;;;;;;;;;;;;5050827;28;20586;-80
2022/07/21 01:11:59;;;;;;;;;;;;;;;;;;5052257;28;20511;-81
2022/07/21 01:14:25;;;;;;;;;;;;;;;;;;5054087;28;19908;-81
2022/07/21 01:16:50;;;;;;;;;;;20.50;99.90;;;;;;5056526;28;19923;-81
2022/07/21 01:19:16;;;;;;;;;;;;;;;;;;5056394;28;19917;-81
2022/07/21 01:21:43;;;;;;;;;;;20.20;99.90;;;;;;5058193;28;19935;-81
2022/07/21 01:24:08;;;;;;;;;;;19.50;99.90;;;;;;5054887;28;20307;-81
2022/07/21 01:26:48;;;;;;;;;;;20.40;99.90;;;;;;5054581;28;19913;-81
2022/07/21 01:29:14;;;;;;;;;;;;;;;;;;5059364;28;19916;-81
2022/07/21 01:31:40;;;;;;;;;;;;;;;;;;5056529;28;20017;-82
2022/07/21 01:34:07;;;;;;;11.63;5.88;;;;;;;;;;5060581;28;20435;-81
2022/07/21 01:36:33;;;;;;;8.55;5.50;;;;;;;;;;5066471;28;20033;-82
2022/07/21 01:41:44;;;;;;;9.15;4.45;;;;;;;;;;5062778;28;20051;-81
2022/07/21 01:44:10;;;;;;;13.35;7.63;;;;;;;;;;5062959;28;20021;-81
2022/07/21 01:46:40;;;;;;;15.35;7.00;;;;;;;;;;5058147;28;20062;-83
2022/07/21 01:49:06;;;;;;;9.82;6.53;;;20.50;99.90;;;;;;5069656;28;20431;-81
2022/07/21 01:51:32;;;;;;;11.45;5.80;;;;;;;;;;5068364;28;20029;-82
2022/07/21 01:53:59;;;;;;;13.77;6.97;;;;;;;;;;5062601;28;20045;-82
2022/07/21 01:56:25;;;;;;;12.63;6.72;;;;;;;;;;5066743;28;20232;-81
2022/07/21 01:58:53;;;;;;;12.40;5.18;;;;;;;;;;5068726;28;20033;-81
2022/07/21 02:01:20;;;;;;;9.77;6.15;;;20.60;99.90;;;;;;5066097;28;20497;-81
2022/07/21 02:03:46;;;;;;;12.27;5.82;;;;;;;;;;5064180;28;20032;-82
2022/07/21 02:06:12;;;;;;;10.43;5.18;;;;;;;;;;5065397;28;20049;-81
2022/07/21 02:08:38;;;;;;;13.20;6.20;;;;;;;;;;5070272;28;20025;-83
2022/07/21 02:11:04;;;;;;;12.40;5.63;;;;;;;;;;5069157;28;20021;-82
2022/07/21 02:13:30;;;;;;;14.43;5.97;;;;;;;;;;5063958;28;20157;-82
2022/07/21 02:15:56;;;;;;;14.45;7.15;;;;;;;;;;5068227;28;20066;-81
2022/07/21 02:18:22;;;;;;;14.05;7.28;;;20.10;99.90;;;;;;5068221;28;20044;-82
2022/07/21 02:20:48;;;;;;;12.13;7.20;;;20.30;99.90;;;;;;5063821;28;20020;-81
2022/07/21 02:23:14;;;;;;;11.23;6.25;;;19.90;99.90;;;;;;5068174;28;20033;-81
2022/07/21 02:25:41;;;;;;;11.68;6.07;;;;;;;;;;5069818;28;20064;-80
2022/07/21 02:28:07;;;;;;;9.35;5.35;;;;;;;;;;5069531;28;20031;-81
2022/07/21 02:30:33;;;;;;;10.68;5.55;;;;;;;;;;5067076;28;20061;-81
2022/07/21 02:32:59;;;;;;;11.32;5.93;;;;;;;;;;5067030;28;20051;-80
2022/07/21 02:35:25;;;;;;;13.40;7.00;;;;;;;;;;5068830;28;20033;-81
2022/07/21 02:37:50;;;;;;;11.00;6.55;;;19.60;99.90;;;;;;5065686;28;20029;-82
2022/07/21 02:40:16;;;;;;;14.68;5.97;;;;;;;;;;5069118;28;20032;-80
2022/07/21 02:42:42;;;;;;;10.07;6.20;;;;;;;;;;5067245;28;20070;-80
2022/07/21 02:45:09;;;;;;;11.00;6.35;;;;;;;;;;5068636;28;20399;-80
2022/07/21 02:48:05;;;;;;;14.75;6.93;;;19.40;99.90;;;;;;5075591;28;20028;-80
2022/07/21 02:50:32;;;;;;;11.20;6.18;;;;;;;;;;5070478;28;20041;-81
2022/07/21 02:53:06;;;;;;;14.68;7.65;;;19.60;99.90;;;;;;5072075;28;20037;-80
2022/07/21 02:55:33;;;;;;;12.75;6.05;;;;;;;;;;5063989;28;20538;-80
2022/07/21 02:58:06;;;;;;;11.75;7.47;;;;;;;;;;5062708;28;20029;-81
2022/07/21 03:00:32;;;;;;;14.52;6.07;;;;;;;;;;5066181;28;20327;-81
2022/07/21 03:02:58;;;;;;;14.68;8.50;;;;;;;;;;5064853;28;20054;-81
2022/07/21 03:05:24;;;;;;;12.40;6.88;;;;;;;;;;5066405;28;20032;-81
2022/07/21 03:07:50;;;;;;;14.40;7.47;;;;;;;;;;5069530;28;20028;-81
2022/07/21 03:10:16;;;;;;;17.15;8.10;;;;;;;;;;5065075;28;20033;-80
2022/07/21 03:12:42;;;;;;;17.63;8.93;;;;;;;;;;5060512;28;20044;-80
2022/07/21 03:15:08;;;;;;;14.35;8.07;;;;;;;;;;5055621;28;20128;-81
2022/07/21 03:17:34;;;;;;;17.25;7.35;;;;;;;;;;5068973;28;20029;-80
2022/07/21 03:20:00;;;;;;;11.15;7.07;;;;;;;;;;5060921;28;20117;-80
2022/07/21 03:22:26;;;;;;;14.13;8.23;;;;;;;;;;5062491;28;20032;-82
2022/07/21 03:24:52;;;;;;;13.00;7.18;;;;;;;;;;5057686;28;20032;-81
2022/07/21 03:27:18;;;;;;;10.00;6.20;;;20.40;99.90;;;;;;5063497;28;20033;-82
2022/07/21 03:29:44;;;;;;;17.13;7.72;;;;;;;;;;5064768;28;20035;-81
2022/07/21 03:32:10;;;;;;;11.38;6.68;;;;;;;;;;5052511;28;20573;-81
2022/07/21 03:34:36;;;;;;;10.50;5.40;;;;;;;;;;5064270;28;20468;-81
2022/07/21 03:37:02;;;;;;;14.27;5.95;;;;;;;;;;5066406;28;20458;-81
2022/07/21 03:39:28;;;;;;;10.77;6.15;;;;;;;;;;5068383;28;20119;-81
2022/07/21 03:41:54;;;;;;;11.15;6.47;;;;;;;;;;5062648;28;20017;-81
2022/07/21 03:44:20;;;;;;;11.30;5.72;;;;;;;;;;5067946;28;20039;-81
2022/07/21 03:46:46;;;;;;;12.13;5.68;;;;;;;;;;5060405;28;20039;-80
2022/07/21 03:49:12;;;;;;;9.27;5.32;;;;;;;;;;5053516;28;20024;-80
2022/07/21 03:51:38;;;;;;;11.52;6.53;;;;;;;;;;5054173;28;20036;-80
2022/07/21 03:54:04;;;;;;;9.23;5.18;;;;;;;;;;5061086;28;20186;-80
2022/07/21 03:56:30;;;;;;;12.38;6.55;;;;;;;;;;5064747;28;20484;-81
2022/07/21 03:58:56;;;;;;;15.23;7.93;;;;;;;;;;5059478;28;20135;-82
2022/07/21 04:01:22;;;;;;;8.40;5.63;;;;;;;;;;5058629;28;20093;-80
2022/07/21 04:03:48;;;;;;;12.07;7.05;;;;;;;;;;5059532;28;20028;-80
2022/07/21 04:06:14;;;;;;;18.30;7.88;;;;;;;;;;5062734;28;20024;-80
2022/07/21 04:08:40;;;;;;;15.02;7.10;;;;;;;;;;5062145;28;20025;-79
2022/07/21 04:11:06;;;;;;;14.50;8.75;;;;;;;;;;5055070;28;20081;-79
2022/07/21 04:13:32;;;;;;;12.43;7.00;;;;;;;;;;5049483;28;20040;-81
2022/07/21 04:15:58;;;;;;;11.13;6.47;;;;;;;;;;5058194;28;20012;-80
2022/07/21 04:18:24;;;;;;;12.82;7.35;;;;;;;;;;5066849;28;20797;-81
2022/07/21 04:20:50;;;;;;;16.02;8.98;;;;;;;;;;5057006;28;20048;-80
2022/07/21 04:23:16;;;;;;;14.80;8.02;;;;;;;;;;5060436;28;20035;-82
2022/07/21 04:25:42;;;;;;;19.20;8.38;;;;;;;;;;5058586;28;20014;-81
2022/07/21 04:28:08;;;;;;;14.68;8.20;;;;;;;;;;5048231;28;20040;-81
2022/07/21 04:30:34;;;;;;;13.70;7.22;;;;;;;;;;5046164;28;20020;-80
2022/07/21 04:33:00;;;;;;;15.20;7.18;;;;;;;;;;5063857;28;20041;-81
2022/07/21 04:35:26;;;;;;;18.73;8.57;;;;;;;;;;5054354;28;20029;-81
2022/07/21 04:37:52;;;;;;;16.67;8.95;;;;;;;;;;5052728;28;20029;-79
2022/07/21 04:40:18;;;;;;;12.40;6.97;;;;;;;;;;5057510;28;20035;-82
2022/07/21 04:42:44;;;;;;;15.95;8.38;;;;;;;;;;5056264;28;20070;-81
2022/07/21 04:45:11;;;;;;;13.77;7.07;;;;;;;;;;5046645;28;20067;-83
2022/07/21 04:47:48;;;;;;;13.82;7.47;;;;;;;;;;5045935;28;20032;-82
2022/07/21 04:50:15;;;;;;;14.40;7.45;;;20.30;99.90;;;;;;5055042;28;20029;-83
2022/07/21 04:52:42;;;;;;;12.55;6.15;;;;;;;;;;5059933;28;20060;-81
2022/07/21 04:55:08;;;;;;;13.93;7.68;;;;;;;;;;5068055;28;20056;-80
2022/07/21 04:57:46;;;;;;;13.25;8.13;;;20.50;99.90;;;;;;5068343;28;20028;-81
2022/07/21 05:00:14;;;;;;;12.82;6.40;;;;;;;;;;5072473;28;20106;-81
2022/07/21 05:02:41;;;;;;;10.10;6.40;;;;;;;;;;5074943;28;20032;-80
2022/07/21 05:05:07;;;;;;;13.00;7.43;;;;;;;;;;5071188;28;20083;-79
2022/07/21 05:07:33;;;;;;;13.27;7.22;;;;;;;;;;5063073;28;20036;-78
2022/07/21 05:10:02;;;;;;;9.60;6.30;;;20.50;99.90;;;;;;5064088;28;20032;-79
2022/07/21 05:12:28;;;;;;;15.65;6.75;;;;;;;;;;5059087;28;20029;-78
2022/07/21 05:14:54;;;;;;;16.15;8.23;;;;;;;;;;5075533;28;20043;-81
2022/07/21 05:17:20;;;;;;;16.67;8.77;;;;;;;;;;5072612;28;20025;-80
2022/07/21 05:19:49;;;;;;;16.73;8.77;;;;;;;;;;5074683;28;20055;-80
2022/07/21 05:22:15;;;;;;;12.88;6.40;;;;;;;;;;5071426;28;20021;-81
2022/07/21 05:24:41;;;;;;;15.77;7.10;;;;;;;;;;5081339;28;20008;-81
2022/07/21 05:27:07;;;;;;;8.95;5.68;;;;;;;;;;5073622;28;20038;-82
2022/07/21 05:29:33;;;;;;;17.55;9.18;;;;;;;;;;5067783;28;20444;-80
2022/07/21 05:31:59;;;;;;;13.23;8.30;;;;;;;;;;5079086;28;20442;-81
2022/07/21 05:34:26;;;;;;;12.77;6.97;;;23.10;99.90;;;;;;5075972;28;20025;-81
2022/07/21 05:36:52;;;;;;;11.20;6.35;;;;;;;;;;5072695;28;20101;-80
2022/07/21 05:39:18;;;;;;;10.65;6.50;;;22.70;99.90;;;;;;5080288;28;20036;-80
2022/07/21 05:41:44;;;;;;;15.07;7.03;;;;;;;;;;5080116;28;20024;-81
2022/07/21 05:44:10;;;;;;;11.52;7.05;;;;;;;;;;5069173;28;20538;-81
2022/07/21 05:46:36;;;;;;;10.50;5.38;;;;;;;;;;5073671;28;20048;-82
2022/07/21 05:49:03;;;;;;;15.20;7.75;;;;;;;;;;5078385;28;20040;-79
2022/07/21 05:51:29;;;;;;;10.68;5.97;;;;;;;;;;5073941;28;20012;-80
2022/07/21 05:53:54;;;;;;;;;;;23.20;99.90;;;;;;5077034;28;20044;-80
2022/07/21 05:56:19;;;;;;;;;;;22.80;99.90;;;;;;5071815;28;19912;-81
2022/07/21 05:58:45;;;;;;;;;;;23.90;99.90;;;;;;5073756;28;19913;-80
2022/07/21 06:01:16;;;;;;;;;;;;;;;;;;5073603;28;20988;-80
2022/07/21 06:03:45;;;;;;;;;;;22.30;99.90;;;;;;5071460;28;19904;-81
2022/07/21 06:06:12;;;;;;;;;;;;;;;;;;5071817;28;19909;-80
2022/07/21 06:08:38;;;;;;;;;;;22.00;99.90;;;;;;5077581;28;19915;-81
2022/07/21 06:11:04;;;;;;;;;;;22.00;99.90;;;;;;5074336;28;19976;-80
2022/07/21 06:13:30;;;;;;;;;;;;;;;;;;5078665;28;19916;-81
2022/07/21 06:15:55;;;;;;;;;;;22.10;99.90;;;;;;5082722;28;19920;-81
2022/07/21 06:18:21;;;;;;;;;;;22.20;99.90;;;;;;5073913;28;19908;-80
2022/07/21 06:20:46;;;;;;;;;;;22.30;99.90;;;;;;5082134;28;19934;-80
2022/07/21 06:23:12;;;;;;;;;;;;;;;;;;5073287;28;20395;-80
2022/07/21 06:25:38;;;;;;;;;;;;;;;;;;5074884;28;19908;-81
2022/07/21 06:28:03;;;;;;;;;;;22.50;99.90;;;;;;5074550;28;19908;-80
2022/07/21 06:30:29;;;;;;;;;;;22.50;99.90;;;;;;5074632;28;19912;-80
2022/07/21 06:32:54;;;;;;;;;;;23.00;99.90;;;;;;5075637;28;19927;-80
2022/07/21 06:35:20;;;;;;;;;;;23.10;99.90;;;;;;5078263;28;19942;-80
2022/07/21 06:37:46;;;;;;;;;;;;;;;;;;5070319;28;20359;-80
2022/07/21 06:40:12;;;;;;;;;;;22.40;99.90;;;;;;5071509;28;19966;-80
2022/07/21 06:42:37;;;;;;;;;;;22.50;99.90;;;;;;5074686;28;19905;-80
2022/07/21 06:45:03;;;;;;;;;;;22.90;99.90;;;;;;5065737;28;19908;-81
2022/07/21 06:47:29;;;;;;;;;;;;;;;;;;5071600;28;19972;-80
2022/07/21 06:49:55;;;;;;;;;;;;;;;;;;5070464;28;19909;-80
2022/07/21 06:52:21;;;;;;;;;;;;;;;;;;5072313;28;19939;-80
2022/07/21 06:54:46;;;;;;;;;;;26.50;99.90;;;;;;5072269;28;19909;-80
2022/07/21 06:57:13;;;;;;;;;;;27.00;99.90;;;;;;5072686;28;19948;-80
2022/07/21 06:59:38;;;;;;;;;;;27.10;99.90;;;;;;5070700;28;20392;-78
2022/07/21 07:02:04;;;;;;;;;;;26.20;99.90;;;;;;5073208;28;19919;-80
2022/07/21 07:04:29;;;;;;;;;;;26.40;99.90;;;;;;5071001;28;19909;-79
2022/07/21 07:06:55;;;;;;;;;;;26.90;99.90;;;;;;5062471;28;19913;-81
2022/07/21 07:09:20;;;;;;;;;;;26.20;99.90;;;;;;5067639;28;19912;-79
2022/07/21 07:11:46;;;;;;;;;;;25.80;99.90;;;;;;5066958;28;19924;-79
2022/07/21 07:14:13;;;;;;;;;;;25.60;99.90;;;;;;5071548;28;19916;-79
2022/07/21 07:16:39;;;;;;;;;;;25.70;99.90;;;;;;5071321;28;19927;-80
2022/07/21 07:19:04;;;;;;;;;;;27.10;99.90;;;;;;5074395;28;19912;-79
2022/07/21 07:21:30;;;;;;;;;;;29.80;97.10;;;;;;5070171;28;19919;-79
2022/07/21 07:23:55;;;;;;;;;;;31.20;93.40;;;;;;5068357;28;19917;-79
2022/07/21 07:26:21;;;;;;;;;;;31.70;86.90;;;;;;5071447;28;19912;-79
2022/07/21 07:28:46;;;;;;;;;;;32.00;84.50;;;;;;5059988;28;20292;-79
2022/07/21 07:31:12;;;;;;;7.03;3.17;;;;;;;;;;5066236;28;20019;-79
2022/07/21 07:33:38;;;;;;;3.90;2.35;;;;;;;;;;5060802;28;20123;-79
2022/07/21 07:36:04;;;;;;;4.93;2.65;;;31.70;79.90;;;;;;5055200;28;20025;-78
2022/07/21 07:38:30;;;;;;;4.75;3.10;;;;;;;;;;5057867;28;20033;-78
2022/07/21 07:40:56;;;;;;;6.93;2.85;;;;;;;;;;5063719;28;20035;-79
2022/07/21 07:43:22;;;;;;;3.88;2.65;;;30.30;93.20;;;;;;5065628;28;20070;-79
2022/07/21 07:45:48;;;;;;;4.25;2.42;;;;;;;;;;5064934;28;20025;-79
2022/07/21 07:48:14;;;;;;;5.57;2.65;;;;;;;;;;5068580;28;20036;-78
2022/07/21 07:50:39;;;;;;;4.88;3.78;;;;;;;;;;5073095;28;20040;-79
2022/07/21 07:53:06;;;;;;;6.40;3.08;;;;;;;;;;5064802;28;20056;-80
2022/07/21 07:55:31;;;;;;;4.18;2.83;;;;;;;;;;5062601;28;20117;-79
2022/07/21 07:57:58;;;;;;;4.53;2.83;;;27.20;96.60;;;;;;5066437;28;20033;-79
2022/07/21 08:00:24;;;;;;;5.60;2.83;;;;;;;;;;5064018;28;20130;-81
2022/07/21 08:02:49;;;;;;;6.18;3.55;;;27.40;96.70;;;;;;5068866;28;20029;-79
2022/07/21 08:05:15;;;;;;;5.07;3.08;;;27.40;97.70;;;;;;5069307;28;20402;-79
2022/07/21 08:07:41;;;;;;;5.15;3.45;;;;;;;;;;5059992;28;20497;-79
2022/07/21 08:10:08;;;;;;;4.60;2.47;;;26.60;91.00;;;;;;5063093;28;20047;-81
2022/07/21 08:12:34;;;;;;;7.38;2.70;;;;;;;;;;5056214;28;20037;-78
2022/07/21 08:15:00;;;;;;;4.88;2.63;;;;;;;;;;5064704;28;20036;-78
2022/07/21 08:17:26;;;;;;;6.35;3.28;;;;;;;;;;5058806;28;20047;-80
2022/07/21 08:19:52;;;;;;;4.05;2.92;;;;;;;;;;5060505;28;20116;-77
2022/07/21 08:22:18;;;;;;;4.70;3.35;;;;;;;;;;5059683;28;20074;-79
2022/07/21 08:24:44;;;;;;;4.90;3.30;;;;;;;;;;5059387;28;20075;-79
2022/07/21 08:27:10;;;;;;;6.80;3.78;;;;;;;;;;5064234;28;20032;-80
2022/07/21 08:29:36;;;;;;;5.35;2.50;;;;;;;;;;5057527;28;20048;-79
2022/07/21 08:32:02;;;;;;;5.60;2.60;;;;;;;;;;5057463;28;20086;-78
2022/07/21 08:34:29;;;;;;;4.80;3.22;;;;;;;;;;5058605;28;20044;-77
2022/07/21 08:36:55;;;;;;;4.55;2.55;;;;;;;;;;5063442;28;20051;-80
2022/07/21 08:39:21;;;;;;;6.13;3.10;;;;;;;;;;5057935;28;20032;-79
2022/07/21 08:41:46;;;;;;;5.85;3.08;;;28.30;85.70;;;;;;5064626;28;20041;-80
2022/07/21 08:44:12;;;;;;;6.05;2.85;;;;;;;;;;5056621;28;20192;-80
2022/07/21 08:46:41;;;;;;;4.72;2.75;;;31.20;80.40;;;;;;5062952;28;20426;-79
2022/07/21 08:49:07;;;;;;;;;;;;;;;;;;5063580;28;20036;-79
2022/07/21 08:51:34;;;;;;;;;;;32.70;75.30;;;;;;5060881;28;19913;-79
2022/07/21 08:53:59;;;;;;;;;;;34.70;65.20;;;;;;5060612;28;19995;-80
2022/07/21 08:56:25;;;;;;;;;;;36.20;59.90;;;;;;5063095;28;19916;-79
2022/07/21 08:58:50;;;;;;;;;;;36.10;56.10;;;;;;5058869;28;20406;-79
2022/07/21 09:01:16;;;;;;;;;;;35.20;55.20;;;;;;5062629;28;20388;-79
2022/07/21 09:03:41;;;;;;;;;;;34.60;56.80;;;;;;5056364;28;19928;-79
2022/07/21 09:06:10;;;;;;;;;;;34.80;57.20;;;;;;5062343;28;20261;-80
2022/07/21 09:08:44;;;;;;;;;;;36.00;54.40;;;;;;5057420;28;19947;-79
2022/07/21 09:11:14;;;;;;;3.58;2.30;;;38.00;51.30;;;;;;5057835;28;19919;-80
2022/07/21 09:13:41;;;;;;;4.53;2.38;;;37.50;55.00;;;;;;5065977;28;20040;-79
2022/07/21 09:16:08;;;;;;;3.38;2.33;;;38.10;52.80;;;;;;5050110;28;20040;-80
2022/07/21 09:18:34;;;;;;;2.92;1.60;;;39.40;59.30;;;;;;5059990;28;20061;-79
2022/07/21 09:21:01;;;;;;;3.90;1.83;;;39.00;57.70;;;;;;5059350;28;20062;-79
2022/07/21 09:23:27;;;;;;;3.75;1.80;;;;;;;;;;5061014;28;20396;-79
2022/07/21 09:25:57;;;;;;;4.45;1.92;;;39.40;45.10;;;;;;5054852;28;20024;-79
2022/07/21 09:28:28;;;;;;;3.08;1.75;;;37.30;55.50;;;;;;5052387;28;20028;-80
2022/07/21 09:30:55;;;;;;;2.07;1.60;;;36.40;49.90;;;;;;5055070;28;20025;-80
2022/07/21 09:33:33;;;;;;;5.47;2.58;;;36.40;50.80;;;;;;5061580;28;20126;-78
2022/07/21 09:36:01;;;;;;;;;;;35.60;52.40;;;;;;5066740;28;20060;-79
2022/07/21 09:38:27;;;;;;;;;;;33.80;53.80;;;;;;5058777;28;19911;-80
2022/07/21 09:40:52;;;;;;;;;;;34.10;54.90;;;;;;5060312;28;20332;-80
2022/07/21 09:43:31;;;;;;;;;;;31.50;60.10;;;;;;5058244;28;19905;-79
2022/07/21 09:46:00;;;;;;;;;;;29.90;61.70;;;;;;5062925;28;19957;-79
2022/07/21 09:48:35;;;;;;;;;;;30.30;63.70;;;;;;5057356;28;19913;-80
2022/07/21 09:51:01;;;;;;;;;;;;;;;;;;5065203;28;19924;-79
2022/07/21 09:53:46;;;;;;;;;;;29.40;68.30;;;;;;5059853;28;19917;-79
2022/07/21 09:56:11;;;;;;;;;;;28.90;72.40;;;;;;5062207;28;19908;-81
2022/07/21 09:58:37;;;;;;;;;;;27.80;71.30;;;;;;5063812;28;19923;-79
2022/07/21 10:01:02;;;;;;;;;;;27.50;73.00;;;;;;5069678;28;20380;-79
2022/07/21 10:03:28;;;;;;;;;;;27.70;73.50;;;;;;5063980;28;20011;-80
2022/07/21 10:05:54;;;;;;;;;;;26.80;77.60;;;;;;5060541;28;19909;-79
2022/07/21 10:08:19;;;;;;;;;;;26.80;74.20;;;;;;5061296;28;19904;-80
2022/07/21 10:10:45;;;;;;;;;;;26.60;75.00;;;;;;5060698;28;20124;-79
2022/07/21 10:13:11;;;;;;;;;;;;;;;;;;5057857;28;20015;-78
2022/07/21 10:15:36;;;;;;;;;;;26.20;76.80;;;;;;5060636;28;19963;-81
2022/07/21 10:18:03;;;;;;;;;;;26.40;79.10;;;;;;5061781;28;19931;-78
2022/07/21 10:20:29;;;;;;;;;;;;;;;;;;5061551;28;19970;-80
2022/07/21 10:23:14;;;;;;;;;;;26.80;80.60;;;;;;5063257;28;19908;-79
2022/07/21 10:25:40;;;;;;;;;;;26.90;77.80;;;;;;5063178;28;19915;-80
2022/07/21 10:28:11;;;;;;;;;;;27.10;78.30;;;;;;5060267;28;20283;-78
2022/07/21 10:30:39;;;;;;;;;;;26.90;76.30;;;;;;5067014;28;20053;-79
2022/07/21 10:33:05;;;;;;;;;;;26.90;76.90;;;;;;5062733;28;19967;-79
2022/07/21 10:35:31;;;;;;;;;;;26.90;77.00;;;;;;5064769;28;19955;-79
2022/07/21 10:37:57;;;;;;;;;;;27.00;80.20;;;;;;5063324;28;19931;-78
2022/07/21 10:40:22;;;;;;;;;;;27.00;74.20;;;;;;5057230;28;19913;-80
2022/07/21 10:43:00;;;;;;;;;;;27.30;75.60;;;;;;5062031;28;20346;-80
2022/07/21 10:45:32;;;;;;;;;;;27.40;77.60;;;;;;5063180;28;20387;-79
2022/07/21 10:47:58;;;;;;;;;;;28.30;74.10;;;;;;5064485;28;20444;-80
2022/07/21 10:50:35;;;;;;;;;;;27.50;73.30;;;;;;5064821;28;19971;-80
2022/07/21 10:53:01;;;;;;;;;;;;;;;;;;5065174;28;20402;-80
2022/07/21 10:55:27;;;;;;;;;;;28.20;76.00;;;;;;5061736;28;19905;-79
2022/07/21 10:58:08;;;;;;;;;;;27.80;72.50;;;;;;5057743;28;19920;-79
2022/07/21 11:00:35;;;;;;;;;;;;;;;;;;5063473;28;20319;-80
2022/07/21 11:03:01;;;;;;;;;;;28.10;70.40;;;;;;5064636;28;19924;-80
2022/07/21 11:05:29;;;;;;;;;;;28.60;69.80;;;;;;5061308;28;19908;-79
2022/07/21 11:08:13;;;;;;;;;;;28.20;68.20;;;;;;5062045;28;19912;-81
2022/07/21 11:10:48;;;;;;;;;;;28.30;69.00;;;;;;5055360;28;19916;-81
2022/07/21 11:13:14;;;;;;;;;;;28.30;69.40;;;;;;5059467;28;19973;-81
2022/07/21 11:15:45;;;;;;;;;;;28.80;67.90;;;;;;5057422;28;19912;-81
2022/07/21 11:18:10;;;;;;;;;;;;;;;;;;5057703;28;20380;-81
2022/07/21 11:20:36;;;;;;;;;;;28.40;67.90;;;;;;5054192;28;19915;-80
2022/07/21 11:23:04;;;;;;;;;;;27.60;70.90;;;;;;5056750;28;20367;-80
2022/07/21 11:25:30;;;;;;;;;;;28.70;66.00;;;;;;5056757;28;19928;-81
2022/07/21 11:27:56;;;;;;;;;;;;;;;;;;5062598;28;20526;-80
2022/07/21 11:30:21;;;;;;;;;;;28.10;66.90;;;;;;5059307;28;19908;-81
2022/07/21 11:32:47;;;;;;;;;;;29.30;65.50;;;;;;5050915;28;19920;-79
2022/07/21 11:35:13;;;;;;;;;;;28.60;68.00;;;;;;5053179;28;19917;-79
2022/07/21 11:37:38;;;;;;;;;;;29.70;67.90;;;;;;5055767;28;19935;-79
2022/07/21 11:40:08;;;;;;;;;;;29.80;65.70;;;;;;5053281;28;19922;-80
2022/07/21 11:42:34;;;;;;;;;;;29.50;65.00;;;;;;5058807;28;19912;-79
2022/07/21 11:45:00;;;;;;;;;;;29.30;59.80;;;;;;5064197;28;19923;-80
2022/07/21 11:47:26;;;;;;;;;;;;;;;;;;5062476;28;19908;-81
2022/07/21 11:49:52;;;;;;;;;;;30.00;63.00;;;;;;5053139;28;19973;-80
2022/07/21 11:52:19;;;;;;;;;;;29.60;64.70;;;;;;5063421;28;19958;-80
2022/07/21 11:54:46;;;;;;;;;;;29.90;63.40;;;;;;5061186;28;19976;-79
2022/07/21 11:57:13;;;;;;;;;;;28.60;61.70;;;;;;5057279;28;19912;-81
2022/07/21 11:59:40;;;;;;;;;;;29.70;62.50;;;;;;5063670;28;20288;-80
2022/07/21 12:02:11;;;;;;;;;;;28.50;63.20;;;;;;5062137;28;20561;-80
2022/07/21 12:04:38;;;;;;;;;;;27.90;61.10;;;;;;5066493;28;20328;-80
2022/07/21 12:07:05;;;;;;;;;;;28.10;61.70;;;;;;5061306;28;19912;-81
2022/07/21 12:09:31;;;;;;;;;;;;;;;;;;5058959;28;19913;-80
2022/07/21 12:11:56;;;;;;;;;;;27.80;64.60;;;;;;5059846;28;20353;-80
2022/07/21 12:14:38;;;;;;;;;;;27.70;63.80;;;;;;5066284;28;19924;-80
2022/07/21 12:17:04;;;;;;;;;;;;;;;;;;5067886;28;19918;-80
2022/07/21 12:19:30;;;;;;;;;;;27.60;67.70;;;;;;5065400;28;19944;-81
2022/07/21 12:21:55;;;;;;;;;;;28.70;67.80;;;;;;5054565;28;19950;-79
2022/07/21 12:24:23;;;;;;;;;;;27.70;67.10;;;;;;5058102;28;19908;-79
2022/07/21 12:26:49;;;;;;;;;;;27.80;64.10;;;;;;5063377;28;19909;-79
2022/07/21 12:29:14;;;;;;;;;;;;;;;;;;5062724;28;19965;-80
2022/07/21 12:31:41;;;;;;;;;;;27.70;63.40;;;;;;5064682;28;19908;-79
2022/07/21 12:34:07;;;;;;;;;;;;;;;;;;5060645;28;19973;-79
2022/07/21 12:36:33;;;;;;;;;;;27.60;65.40;;;;;;5059862;28;19912;-79
2022/07/21 12:39:12;;;;;;;;;;;27.70;65.60;;;;;;5058702;28;19908;-81
2022/07/21 12:41:43;;;;;;;;;;;27.70;62.40;;;;;;5055457;28;20356;-80
2022/07/21 12:44:09;;;;;;;;;;;27.80;62.40;;;;;;5060395;28;19923;-80
2022/07/21 12:46:34;;;;;;;;;;;;;;;;;;5048243;28;19908;-81
2022/07/21 12:49:04;;;;;;;;;;;27.80;63.20;;;;;;5069502;28;19923;-80
2022/07/21 12:51:29;;;;;;;;;;;28.70;64.10;;;;;;5078461;28;19935;-79
2022/07/21 12:53:55;;;;;;;;;;;27.90;59.60;;;;;;5069709;28;19921;-80
2022/07/21 12:56:21;;;;;;;;;;;;;;;;;;5061787;28;19935;-81
2022/07/21 12:58:46;;;;;;;;;;;29.20;61.80;;;;;;5053626;28;20781;-79
2022/07/21 13:01:12;;;;;;;;;;;27.80;62.00;;;;;;5059605;28;19912;-80
2022/07/21 13:03:38;;;;;;;;;;;27.90;63.80;;;;;;5060706;28;20007;-79
2022/07/21 13:06:05;;;;;;;;;;;28.70;62.80;;;;;;5053244;28;19979;-82
2022/07/21 13:08:31;;;;;;;;;;;27.80;63.00;;;;;;5057443;28;19916;-79
2022/07/21 13:10:56;;;;;;;;;;;27.60;64.10;;;;;;5058363;28;19913;-81
2022/07/21 13:13:22;;;;;;;;;;;28.70;63.90;;;;;;5061316;28;19916;-80
2022/07/21 13:15:48;;;;;;;;;;;;;;;;;;5061224;28;19979;-80
2022/07/21 13:18:13;;;;;;;;;;;27.90;60.60;;;;;;5062359;28;20578;-80
2022/07/21 13:20:39;;;;;;;;;;;27.70;60.20;;;;;;5056688;28;19912;-79
2022/07/21 13:23:05;;;;;;;;;;;28.20;62.90;;;;;;5060475;28;20376;-80
2022/07/21 13:25:30;;;;;;;;;;;28.90;61.40;;;;;;5065619;28;20003;-80
2022/07/21 13:27:56;;;;;;;;;;;28.30;61.20;;;;;;5064113;28;19912;-79
2022/07/21 13:30:21;;;;;;;;;;;28.40;59.20;;;;;;5057198;28;20265;-80
2022/07/21 13:32:47;;;;;;;;;;;28.20;60.20;;;;;;5056829;28;19974;-80
2022/07/21 13:35:13;;;;;;;;;;;29.50;60.40;;;;;;5059041;28;19923;-80
2022/07/21 13:37:38;;;;;;;;;;;28.30;59.20;;;;;;5053631;28;19908;-81
2022/07/21 13:40:04;;;;;;;;;;;;;;;;;;5063923;28;19981;-79
2022/07/21 13:42:30;;;;;;;;;;;28.40;59.10;;;;;;5059827;28;19969;-81
2022/07/21 13:44:55;;;;;;;;;;;28.60;60.10;;;;;;5059045;28;19966;-80
2022/07/21 13:47:21;;;;;;;;;;;29.50;59.30;;;;;;5063936;28;19974;-79
2022/07/21 13:49:47;;;;;;;;;;;;;;;;;;5059390;28;20422;-79
2022/07/21 13:52:12;;;;;;;;;;;28.20;59.80;;;;;;5053932;28;19916;-79
2022/07/21 13:54:37;;;;;;;;;;;28.70;61.50;;;;;;5058733;28;20019;-80
2022/07/21 13:57:03;;;;;;;;;;;29.20;61.40;;;;;;5065877;28;19997;-80
2022/07/21 13:59:28;;;;;;;;;;;29.00;65.50;;;;;;5060757;28;19912;-80
2022/07/21 14:01:55;;;;;;;;;;;29.50;64.00;;;;;;5056026;28;20456;-80
2022/07/21 14:04:21;;;;;;;;;;;29.50;63.90;;;;;;5061401;28;19908;-80
2022/07/21 14:06:48;;;;;;;;;;;28.40;61.10;;;;;;5057391;28;20353;-81
2022/07/21 14:09:14;;;;;;;;;;;29.50;60.70;;;;;;5057611;28;19915;-80
2022/07/21 14:11:39;;;;;;;;;;;26.60;59.90;;;;;;5062287;28;19912;-81
2022/07/21 14:14:05;;;;;;;;;;;28.40;60.30;;;;;;5052269;28;19983;-81
2022/07/21 14:16:30;;;;;;;;;;;29.40;61.20;;;;;;5057702;28;20284;-80
2022/07/21 14:18:56;;;;;;;;;;;28.50;61.20;;;;;;5055980;28;19939;-80
2022/07/21 14:21:21;;;;;;;;;;;28.50;62.00;;;;;;5052169;28;19920;-81
2022/07/21 14:23:47;;;;;;;;;;;29.20;62.50;;;;;;5057245;28;20808;-78
2022/07/21 14:26:12;;;;;;;;;;;29.50;64.10;;;;;;5058760;28;20182;-80
2022/07/21 14:28:38;;;;;;;;;;;28.50;62.70;;;;;;5056754;28;20269;-81
2022/07/21 14:31:04;;;;;;;;;;;;;;;;;;5055287;28;19912;-80
2022/07/21 14:33:29;;;;;;;;;;;28.50;60.90;;;;;;5058016;28;20519;-80